Time;durP1;ratioP1;P1;durP2;ratioP2;P2;SDS_P1;SDS_P2;PMS_P1;PMS_P2;Temp;Humidity;BMP_temperature;BMP_pressure;BME280_temperature;BME280_humidity;BME280_pressure;Samples;Min_cycle;Max_cycle;Signal;HPM_P1;HPM_P2
2022/08/15 00:01:49;;;;;;;12.68;10.18;;;23.10;99.90;;;;;;5073423;28;20044;-92
2022/08/15 00:04:14;;;;;;;10.40;8.98;;;23.10;99.90;;;;;;5074967;28;20042;-93
2022/08/15 00:06:43;;;;;;;11.90;9.40;;;23.10;99.90;;;;;;5073574;28;20485;-93
2022/08/15 00:09:18;;;;;;;14.52;9.80;;;23.10;99.90;;;;;;5057294;28;20036;-92
2022/08/15 00:11:49;;;;;;;12.75;9.18;;;23.10;99.90;;;;;;5073309;28;20403;-92
2022/08/15 00:14:19;;;;;;;12.57;9.75;;;23.20;99.90;;;;;;5073910;28;20040;-93
2022/08/15 00:16:47;;;;;;;11.57;9.80;;;23.20;99.90;;;;;;5073459;28;20524;-92
2022/08/15 00:19:16;;;;;;;11.50;9.18;;;23.20;99.90;;;;;;5073551;28;20494;-92
2022/08/15 00:21:46;;;;;;;13.65;10.30;;;23.10;99.90;;;;;;5073092;28;20047;-92
2022/08/15 00:24:15;;;;;;;12.25;10.18;;;23.20;99.90;;;;;;5073038;28;20540;-92
2022/08/15 00:26:48;;;;;;;12.25;9.05;;;23.10;99.90;;;;;;5056786;28;20036;-92
2022/08/15 00:29:15;;;;;;;13.13;10.10;;;23.10;99.90;;;;;;5072842;28;20075;-92
2022/08/15 00:31:41;;;;;;;13.10;9.50;;;23.10;99.90;;;;;;5072862;28;20041;-92
2022/08/15 00:34:07;;;;;;;13.55;10.43;;;23.10;99.90;;;;;;5056462;28;20044;-93
2022/08/15 00:36:33;;;;;;;12.15;10.13;;;23.10;99.90;;;;;;5073641;28;20041;-92
2022/08/15 00:39:00;;;;;;;10.90;9.48;;;23.10;99.90;;;;;;5073069;28;20047;-92
2022/08/15 00:41:41;;;;;;;15.10;11.23;;;23.10;99.90;;;;;;5072639;28;20041;-93
2022/08/15 00:44:18;;;;;;;10.97;9.33;;;23.10;99.90;;;;;;5056488;28;20052;-93
2022/08/15 00:46:58;;;;;;;11.65;8.75;;;23.10;99.90;;;;;;5072974;28;20036;-93
2022/08/15 00:49:27;;;;;;;11.07;9.05;;;23.10;99.90;;;;;;5056457;28;20398;-92
2022/08/15 00:51:59;;;;;;;11.60;9.32;;;23.10;99.90;;;;;;5073645;28;20044;-91
2022/08/15 00:54:26;;;;;;;12.27;8.95;;;23.10;99.90;;;;;;5055540;28;20076;-93
2022/08/15 00:57:03;;;;;;;10.90;9.20;;;23.10;99.90;;;;;;5072964;28;20509;-93
2022/08/15 00:59:31;;;;;;;12.15;10.10;;;23.10;99.90;;;;;;5072832;28;20046;-92
2022/08/15 01:01:59;;;;;;;11.68;10.35;;;23.00;99.90;;;;;;5072555;28;20123;-93
2022/08/15 01:04:25;;;;;;;11.30;9.52;;;23.00;99.90;;;;;;5072522;28;20032;-93
2022/08/15 01:06:51;;;;;;;13.55;10.48;;;22.90;99.90;;;;;;5072399;28;20033;-93
2022/08/15 01:09:17;;;;;;;14.18;10.82;;;22.90;99.90;;;;;;5072784;28;20040;-92
2022/08/15 01:12:02;;;;;;;12.43;10.63;;;22.90;99.90;;;;;;5055786;28;20043;-93
2022/08/15 01:14:29;;;;;;;12.18;10.10;;;22.80;99.90;;;;;;5055987;28;20048;-93
2022/08/15 01:16:55;;;;;;;12.77;10.10;;;22.70;99.90;;;;;;5072746;28;20083;-93
2022/08/15 01:19:23;;;;;;;11.00;9.18;;;22.70;99.90;;;;;;5072547;28;20513;-93
2022/08/15 01:22:09;;;;;;;13.02;9.00;;;22.70;99.90;;;;;;5055205;28;20523;-92
2022/08/15 01:25:00;;;;;;;12.90;9.60;;;22.70;99.90;;;;;;5072473;28;20045;-93
2022/08/15 01:27:32;;;;;;;12.40;8.93;;;22.70;99.90;;;;;;5055596;28;20037;-92
2022/08/15 01:29:59;;;;;;;11.70;8.90;;;22.70;99.90;;;;;;5072177;28;20043;-92
2022/08/15 01:32:25;;;;;;;13.40;8.70;;;22.70;99.90;;;;;;5055076;28;20082;-92
2022/08/15 01:34:51;;;;;;;11.50;9.40;;;22.70;99.90;;;;;;5055494;28;20032;-92
2022/08/15 01:37:17;;;;;;;11.50;8.52;;;22.70;99.90;;;;;;5073506;28;20531;-92
2022/08/15 01:40:02;;;;;;;11.95;9.15;;;22.70;99.90;;;;;;5072305;28;20064;-93
2022/08/15 01:42:43;;;;;;;10.43;8.10;;;22.70;99.90;;;;;;5072178;28;20562;-93
2022/08/15 01:45:14;;;;;;;11.00;8.30;;;22.70;99.90;;;;;;5071663;28;20033;-93
2022/08/15 01:48:06;;;;;;;11.00;8.60;;;22.80;99.90;;;;;;5055485;28;20119;-92
2022/08/15 01:50:34;;;;;;;10.68;8.13;;;22.80;99.90;;;;;;5071535;28;20119;-93
2022/08/15 01:53:08;;;;;;;10.70;8.25;;;22.80;99.90;;;;;;5071706;28;20477;-93
2022/08/15 01:55:45;;;;;;;11.68;8.55;;;22.80;99.90;;;;;;5073090;28;20063;-93
2022/08/15 01:58:11;;;;;;;11.07;8.20;;;22.80;99.90;;;;;;5071797;28;20048;-93
2022/08/15 02:00:37;;;;;;;10.60;8.38;;;22.80;99.90;;;;;;5071424;28;20074;-93
2022/08/15 02:03:03;;;;;;;11.40;8.75;;;22.70;99.90;;;;;;5070754;28;20498;-92
2022/08/15 02:05:29;;;;;;;11.77;8.50;;;22.70;99.90;;;;;;5071531;28;20084;-93
2022/08/15 02:07:54;;;;;;;10.82;8.93;;;22.70;99.90;;;;;;5055134;28;20371;-92
2022/08/15 02:10:21;;;;;;;11.55;9.10;;;22.70;99.90;;;;;;5072966;28;20040;-92
2022/08/15 02:12:48;;;;;;;10.48;9.20;;;22.60;99.90;;;;;;5071165;28;20119;-93
2022/08/15 02:15:19;;;;;;;11.80;9.00;;;22.60;99.90;;;;;;5071483;28;20045;-92
2022/08/15 02:17:45;;;;;;;10.60;8.80;;;22.50;99.90;;;;;;5071155;28;20047;-92
2022/08/15 02:20:13;;;;;;;11.38;10.18;;;22.50;99.90;;;;;;5070883;28;20127;-92
2022/08/15 02:22:39;;;;;;;11.60;10.23;;;22.50;99.90;;;;;;5054166;28;20044;-92
2022/08/15 02:25:07;;;;;;;11.55;9.43;;;22.40;99.90;;;;;;5054849;28;20387;-92
2022/08/15 02:27:35;;;;;;;12.80;10.63;;;22.30;99.90;;;;;;5071325;28;20041;-92
2022/08/15 02:30:12;;;;;;;12.15;9.65;;;22.20;99.90;;;;;;5070965;28;20071;-92
2022/08/15 02:32:39;;;;;;;12.23;9.82;;;22.20;99.90;;;;;;5070551;28;20083;-92
2022/08/15 02:35:06;;;;;;;11.70;10.10;;;22.20;99.90;;;;;;5054678;28;20041;-92
2022/08/15 02:37:32;;;;;;;12.38;10.20;;;22.10;99.90;;;;;;5071180;28;20040;-92
2022/08/15 02:39:57;;;;;;;12.63;9.23;;;22.10;99.90;;;;;;5070896;28;20051;-92
2022/08/15 02:42:23;;;;;;;13.65;10.10;;;22.10;99.90;;;;;;5070302;28;20037;-92
2022/08/15 02:44:49;;;;;;;12.23;10.02;;;22.10;99.90;;;;;;5071089;28;20028;-92
2022/08/15 02:47:15;;;;;;;11.32;9.90;;;22.10;99.90;;;;;;5070765;28;20520;-92
2022/08/15 02:49:43;;;;;;;12.23;9.65;;;22.00;99.90;;;;;;5071027;28;20040;-93
2022/08/15 02:52:10;;;;;;;11.35;10.02;;;22.00;99.90;;;;;;5070925;28;20509;-93
2022/08/15 02:54:36;;;;;;;11.35;9.20;;;22.10;99.90;;;;;;5070630;28;20493;-92
2022/08/15 02:57:02;;;;;;;10.82;9.40;;;22.00;99.90;;;;;;5053926;28;20044;-92
2022/08/15 02:59:28;;;;;;;12.75;9.90;;;22.00;99.90;;;;;;5070495;28;20433;-92
2022/08/15 03:01:56;;;;;;;11.77;8.90;;;21.90;99.90;;;;;;5053598;28;20033;-92
2022/08/15 03:04:23;;;;;;;10.95;8.70;;;21.80;99.90;;;;;;5070625;28;20072;-92
2022/08/15 03:06:50;;;;;;;11.85;8.65;;;21.80;99.90;;;;;;5053965;28;20558;-93
2022/08/15 03:09:16;;;;;;;11.57;8.95;;;21.80;99.90;;;;;;5070591;28;20036;-93
2022/08/15 03:11:43;;;;;;;11.82;8.80;;;21.80;99.90;;;;;;5069916;28;20407;-92
2022/08/15 03:14:12;;;;;;;11.35;8.27;;;21.70;99.90;;;;;;5070490;28;20048;-93
2022/08/15 03:16:42;;;;;;;10.48;8.95;;;21.70;99.90;;;;;;5069899;28;20051;-93
2022/08/15 03:19:08;;;;;;;10.60;8.57;;;21.60;99.90;;;;;;5053853;28;20051;-92
2022/08/15 03:21:35;;;;;;;10.73;8.32;;;21.50;99.90;;;;;;5070162;28;20079;-93
2022/08/15 03:24:01;;;;;;;11.15;8.68;;;21.50;99.90;;;;;;5070029;28;20111;-92
2022/08/15 03:26:27;;;;;;;11.80;8.82;;;21.40;99.90;;;;;;5070541;28;20040;-92
2022/08/15 03:28:54;;;;;;;10.50;8.43;;;21.30;99.90;;;;;;5070697;28;20059;-93
2022/08/15 03:31:19;;;;;;;12.02;9.45;;;21.20;99.90;;;;;;5070426;28;20071;-92
2022/08/15 03:33:46;;;;;;;11.55;8.70;;;21.20;99.90;;;;;;5053524;28;20036;-92
2022/08/15 03:36:17;;;;;;;12.10;9.43;;;21.10;99.90;;;;;;5070573;28;20518;-92
2022/08/15 03:38:44;;;;;;;13.25;9.30;;;21.10;99.90;;;;;;5070385;28;20067;-92
2022/08/15 03:41:12;;;;;;;11.07;9.23;;;21.10;99.90;;;;;;5070140;28;20044;-92
2022/08/15 03:43:39;;;;;;;13.18;9.40;;;21.00;99.90;;;;;;5070175;28;20056;-92
2022/08/15 03:46:09;;;;;;;15.68;9.10;;;20.90;99.90;;;;;;5069795;28;20072;-92
2022/08/15 03:48:42;;;;;;;11.77;9.20;;;21.00;99.90;;;;;;5053587;28;20075;-92
2022/08/15 03:51:09;;;;;;;11.20;8.60;;;21.00;99.90;;;;;;5053008;28;20123;-92
2022/08/15 03:53:46;;;;;;;11.35;8.45;;;20.90;99.90;;;;;;5053392;28;20080;-92
2022/08/15 03:56:15;;;;;;;12.32;8.80;;;20.90;99.90;;;;;;5070094;28;20054;-92
2022/08/15 03:58:42;;;;;;;9.88;7.90;;;20.90;99.90;;;;;;5070184;28;20132;-92
2022/08/15 04:01:17;;;;;;;9.70;7.82;;;20.90;99.90;;;;;;5052962;28;20510;-92
2022/08/15 04:03:44;;;;;;;10.15;8.23;;;20.80;99.90;;;;;;5053299;28;20421;-92
2022/08/15 04:06:13;;;;;;;11.05;7.95;;;20.80;99.90;;;;;;5070007;28;20045;-92
2022/08/15 04:08:38;;;;;;;10.70;8.10;;;20.80;99.90;;;;;;5053421;28;20083;-92
2022/08/15 04:11:06;;;;;;;10.25;7.90;;;20.80;99.90;;;;;;5069950;28;20072;-92
2022/08/15 04:13:33;;;;;;;11.27;7.65;;;20.80;99.90;;;;;;5070002;28;20082;-92
2022/08/15 04:16:01;;;;;;;10.73;8.02;;;20.60;99.90;;;;;;5053185;28;20098;-92
2022/08/15 04:18:27;;;;;;;10.65;8.13;;;20.60;99.90;;;;;;5053305;28;20044;-92
2022/08/15 04:20:55;;;;;;;11.40;8.68;;;20.60;99.90;;;;;;5069341;28;20036;-92
2022/08/15 04:23:21;;;;;;;10.95;8.63;;;20.70;99.90;;;;;;5053489;28;20041;-92
2022/08/15 04:25:47;;;;;;;11.52;8.55;;;20.70;99.90;;;;;;5069739;28;20048;-92
2022/08/15 04:28:15;;;;;;;12.18;7.97;;;20.80;99.90;;;;;;5070396;28;20044;-92
2022/08/15 04:30:43;;;;;;;11.98;9.00;;;20.80;99.90;;;;;;5073207;28;20101;-92
2022/08/15 04:33:17;;;;;;;13.35;9.30;;;20.80;99.90;;;;;;5072791;28;20838;-92
2022/08/15 04:35:53;;;;;;;11.48;9.18;;;20.80;99.90;;;;;;5073311;28;20074;-92
2022/08/15 04:38:19;;;;;;;11.35;9.00;;;20.90;99.90;;;;;;5073020;28;20055;-92
2022/08/15 04:40:46;;;;;;;14.73;10.00;;;20.90;99.90;;;;;;5073239;28;20821;-92
2022/08/15 04:43:13;;;;;;;11.52;10.00;;;20.90;99.90;;;;;;5072645;28;20103;-92
2022/08/15 04:45:40;;;;;;;15.27;10.73;;;20.90;99.90;;;;;;5072985;28;20045;-92
2022/08/15 04:48:07;;;;;;;13.48;9.82;;;20.90;99.90;;;;;;5056825;28;20036;-92
2022/08/15 04:50:35;;;;;;;12.18;10.55;;;20.90;99.90;;;;;;5072161;28;20123;-93
2022/08/15 04:53:01;;;;;;;14.18;11.60;;;20.90;99.90;;;;;;5072710;28;20087;-92
2022/08/15 04:55:27;;;;;;;12.20;10.93;;;21.00;99.90;;;;;;5056257;28;20044;-93
2022/08/15 04:57:54;;;;;;;11.95;10.60;;;21.10;99.90;;;;;;5055955;28;20452;-92
2022/08/15 05:00:22;;;;;;;14.32;10.52;;;21.10;99.90;;;;;;5072835;28;20648;-92
2022/08/15 05:03:06;;;;;;;12.77;11.48;;;21.20;99.90;;;;;;5056012;28;20556;-92
2022/08/15 05:05:35;;;;;;;12.77;10.82;;;21.20;99.90;;;;;;5056005;28;20033;-92
2022/08/15 05:08:01;;;;;;;13.07;10.82;;;21.20;99.90;;;;;;5055853;28;20033;-92
2022/08/15 05:10:28;;;;;;;13.60;11.15;;;21.20;99.90;;;;;;5072529;28;20044;-92
2022/08/15 05:12:54;;;;;;;13.60;11.50;;;21.20;99.90;;;;;;5039090;28;20490;-92
2022/08/15 05:15:21;;;;;;;12.13;10.75;;;21.30;99.90;;;;;;5072517;28;20067;-92
2022/08/15 05:17:47;;;;;;;14.23;11.80;;;21.30;99.90;;;;;;5072414;28;20051;-92
2022/08/15 05:20:14;;;;;;;13.30;11.95;;;21.30;99.90;;;;;;5072283;28;20040;-92
2022/08/15 05:22:56;;;;;;;15.27;11.95;;;21.40;99.90;;;;;;5055044;28;20040;-93
2022/08/15 05:25:22;;;;;;;13.80;11.82;;;21.40;99.90;;;;;;5072402;28;20048;-93
2022/08/15 05:27:48;;;;;;;14.35;11.98;;;21.40;99.90;;;;;;5055910;28;20033;-93
2022/08/15 05:30:14;;;;;;;12.57;11.27;;;21.40;99.90;;;;;;5055552;28;20068;-93
2022/08/15 05:32:40;;;;;;;13.75;11.15;;;21.50;99.90;;;;;;5055165;28;20043;-93
2022/08/15 05:35:06;;;;;;;13.65;12.25;;;21.50;99.90;;;;;;5072011;28;20123;-92
2022/08/15 05:37:32;;;;;;;14.77;12.50;;;21.50;99.90;;;;;;5055604;28;20045;-92
2022/08/15 05:39:58;;;;;;;17.75;13.25;;;21.60;99.90;;;;;;5071882;28;20078;-92
2022/08/15 05:42:38;;;;;;;14.60;12.50;;;21.60;99.90;;;;;;5071605;28;20054;-93
2022/08/15 05:45:49;;;;;;;14.65;12.90;;;21.60;99.90;;;;;;5071790;28;20564;-92
2022/08/15 05:48:18;;;;;;;14.52;13.05;;;21.70;99.90;;;;;;5030477;28;20103;-92
2022/08/15 05:51:02;;;;;;;13.65;12.25;;;21.60;99.90;;;;;;5014282;28;20152;-93
2022/08/15 05:53:49;;;;;;;13.63;12.23;;;21.70;99.90;;;;;;5006164;28;20049;-93
2022/08/15 05:56:27;;;;;;;14.27;12.77;;;21.70;99.90;;;;;;5014502;28;20099;-93
2022/08/15 05:59:04;;;;;;;14.45;12.95;;;21.80;99.90;;;;;;5014398;28;20065;-93
2022/08/15 06:01:40;;;;;;;14.30;12.85;;;21.80;99.90;;;;;;5013468;28;20049;-93
2022/08/15 06:04:30;;;;;;;15.57;13.13;;;21.80;99.90;;;;;;5014021;28;20571;-92
2022/08/15 06:06:57;;;;;;;16.17;13.88;;;21.90;99.90;;;;;;5013969;28;20072;-92
2022/08/15 06:09:50;;;;;;;14.65;13.02;;;21.90;99.90;;;;;;5013422;28;20045;-92
2022/08/15 06:12:28;;;;;;;14.80;13.27;;;22.00;99.90;;;;;;4997337;28;20041;-92
2022/08/15 06:15:00;;;;;;;14.63;12.85;;;22.00;99.90;;;;;;5013785;28;20045;-92
2022/08/15 06:17:33;;;;;;;14.57;12.75;;;22.00;99.90;;;;;;4997541;28;20180;-93
2022/08/15 06:20:03;;;;;;;14.88;13.00;;;22.00;99.90;;;;;;5013753;28;20049;-92
2022/08/15 06:22:33;;;;;;;14.68;13.18;;;22.00;99.90;;;;;;4996932;28;20037;-92
2022/08/15 06:25:11;;;;;;;15.35;13.75;;;22.10;99.90;;;;;;5052904;28;20052;-92
2022/08/15 06:28:13;;;;;;;15.75;14.15;;;22.10;99.90;;;;;;5070692;28;20044;-92
2022/08/15 06:30:42;;;;;;;16.25;14.65;;;22.10;99.90;;;;;;5054491;28;20133;-93
2022/08/15 06:33:12;;;;;;;16.40;14.75;;;22.10;99.90;;;;;;5054244;28;20048;-93
2022/08/15 06:35:45;;;;;;;16.17;14.48;;;22.10;99.90;;;;;;5054285;28;20350;-93
2022/08/15 06:38:36;;;;;;;16.95;15.20;;;22.20;99.90;;;;;;5069419;28;20040;-93
2022/08/15 06:41:04;;;;;;;16.85;15.25;;;22.20;99.90;;;;;;5066714;28;20045;-93
2022/08/15 06:43:30;;;;;;;16.13;14.55;;;22.20;99.90;;;;;;5071998;28;20036;-93
2022/08/15 06:46:00;;;;;;;16.23;14.48;;;22.20;99.90;;;;;;5039420;28;20033;-93
2022/08/15 06:48:32;;;;;;;17.63;14.25;;;22.30;99.90;;;;;;5042436;28;20037;-93
2022/08/15 06:51:00;;;;;;;18.33;14.13;;;22.30;99.90;;;;;;5059388;28;20036;-93
2022/08/15 06:53:38;;;;;;;15.00;13.40;;;22.40;99.90;;;;;;5048305;28;20040;-93
2022/08/15 06:56:33;;;;;;;14.55;13.07;;;22.40;99.90;;;;;;5046610;28;20036;-93
2022/08/15 06:59:01;;;;;;;14.98;13.38;;;22.50;99.90;;;;;;4984678;28;20057;-93
2022/08/15 07:01:57;;;;;;;14.93;13.23;;;22.50;99.90;;;;;;5051625;28;20079;-93
2022/08/15 07:04:36;;;;;;;16.27;13.55;;;22.60;99.90;;;;;;5050804;28;20047;-93
2022/08/15 07:07:04;;;;;;;15.40;13.82;;;22.60;99.90;;;;;;5050505;28;20120;-92
2022/08/15 07:10:04;;;;;;;15.20;12.60;;;22.70;99.90;;;;;;5034215;28;20032;-93
2022/08/15 07:12:42;;;;;;;14.25;12.73;;;22.80;99.90;;;;;;5037655;28;20045;-93
2022/08/15 07:15:36;;;;;;;14.88;13.20;;;22.80;99.90;;;;;;5050585;28;20136;-92
2022/08/15 07:18:12;;;;;;;15.50;12.95;;;22.90;99.90;;;;;;5052672;28;20045;-93
2022/08/15 07:20:38;;;;;;;13.73;12.32;;;23.00;99.90;;;;;;5053681;28;20046;-93
2022/08/15 07:23:25;;;;;;;14.80;12.77;;;23.00;99.90;;;;;;5070253;28;20036;-92
2022/08/15 07:25:52;;;;;;;14.95;13.35;;;23.10;99.90;;;;;;5070473;28;20040;-93
2022/08/15 07:28:27;;;;;;;14.13;12.63;;;23.20;99.90;;;;;;5070548;28;20055;-93
2022/08/15 07:31:10;;;;;;;13.88;12.38;;;23.20;99.90;;;;;;5070039;28;20049;-92
2022/08/15 07:33:46;;;;;;;14.60;13.02;;;23.30;99.90;;;;;;5070663;28;20044;-93
2022/08/15 07:36:26;;;;;;;15.73;12.63;;;23.40;99.90;;;;;;5070181;28;20045;-93
2022/08/15 07:38:54;;;;;;;13.75;11.85;;;23.40;99.90;;;;;;5070598;28;20520;-92
2022/08/15 07:41:31;;;;;;;14.55;11.95;;;23.40;99.90;;;;;;5069875;28;20560;-93
2022/08/15 07:44:17;;;;;;;13.40;11.80;;;23.40;99.90;;;;;;5070144;28;20054;-92
2022/08/15 07:47:01;;;;;;;13.45;11.63;;;23.50;99.90;;;;;;5053343;28;20051;-93
2022/08/15 07:49:30;;;;;;;13.77;11.32;;;23.60;99.90;;;;;;5053165;28;20047;-92
2022/08/15 07:52:16;;;;;;;15.85;12.93;;;23.60;99.90;;;;;;5069970;28;20120;-93
2022/08/15 07:54:42;;;;;;;14.18;11.18;;;23.80;99.90;;;;;;5070614;28;20083;-93
2022/08/15 07:57:25;;;;;;;13.77;11.07;;;23.80;99.90;;;;;;5053353;28;20540;-93
2022/08/15 08:00:25;;;;;;;13.90;12.43;;;23.90;99.90;;;;;;5069903;28;20090;-92
2022/08/15 08:02:53;;;;;;;14.95;12.00;;;23.90;99.90;;;;;;5071662;28;20045;-93
2022/08/15 08:05:23;;;;;;;12.85;11.45;;;24.00;99.90;;;;;;5073381;28;20040;-93
2022/08/15 08:07:50;;;;;;;13.43;11.27;;;24.00;99.90;;;;;;5074030;28;20397;-93
2022/08/15 08:10:23;;;;;;;14.27;11.93;;;24.10;99.90;;;;;;5073724;28;20052;-93
2022/08/15 08:13:16;;;;;;;15.02;12.05;;;24.10;99.90;;;;;;5056786;28;20078;-93
2022/08/15 08:15:54;;;;;;;18.67;12.65;;;24.20;99.90;;;;;;5073422;28;20044;-93
2022/08/15 08:18:55;;;;;;;15.30;12.10;;;24.20;99.90;;;;;;5056762;28;20052;-93
2022/08/15 08:21:50;;;;;;;15.57;11.10;;;24.20;99.90;;;;;;5073114;28;20556;-93
2022/08/15 08:24:45;;;;;;;14.27;11.55;;;24.30;99.90;;;;;;5071677;28;20106;-92
2022/08/15 08:27:22;;;;;;;14.15;12.50;;;24.40;99.90;;;;;;5072938;28;20044;-93
2022/08/15 08:30:26;;;;;;;15.02;13.13;;;24.40;99.90;;;;;;5073623;28;20037;-93
2022/08/15 08:33:21;;;;;;;14.65;12.27;;;24.60;99.90;;;;;;5056343;28;20044;-92
2022/08/15 08:35:54;;;;;;;14.40;12.40;;;24.60;99.90;;;;;;5028567;28;20139;-93
2022/08/15 08:38:27;;;;;;;14.73;13.23;;;24.70;99.90;;;;;;5073118;28;20036;-93
2022/08/15 08:41:28;;;;;;;19.10;14.60;;;24.80;99.90;;;;;;5072547;28;20128;-92
2022/08/15 08:44:13;;;;;;;15.75;14.10;;;24.90;99.90;;;;;;5072975;28;20409;-93
2022/08/15 08:47:01;;;;;;;15.95;14.35;;;24.90;99.90;;;;;;5072906;28;20501;-93
2022/08/15 08:50:01;;;;;;;16.05;14.05;;;24.90;99.90;;;;;;5072986;28;20040;-93
2022/08/15 08:52:48;;;;;;;17.50;14.32;;;25.00;99.90;;;;;;5055950;28;20044;-93
2022/08/15 08:55:22;;;;;;;17.35;15.50;;;25.00;99.90;;;;;;5072854;28;20043;-93
2022/08/15 08:57:58;;;;;;;16.50;14.70;;;25.00;99.90;;;;;;5073285;28;20048;-93
2022/08/15 09:00:32;;;;;;;16.77;15.07;;;25.00;99.90;;;;;;5072614;28;20074;-94
2022/08/15 09:03:17;;;;;;;19.98;15.02;;;25.00;99.90;;;;;;5063291;28;20078;-93
2022/08/15 09:05:55;;;;;;;17.85;16.08;;;25.00;99.90;;;;;;5072636;28;20040;-93
2022/08/15 09:08:32;;;;;;;17.10;15.25;;;25.00;99.90;;;;;;5056066;28;20486;-93
2022/08/15 09:11:03;;;;;;;17.50;15.60;;;25.00;99.90;;;;;;5072627;28;20044;-93
2022/08/15 09:13:34;;;;;;;17.63;15.70;;;25.00;99.90;;;;;;5055442;28;20048;-93
2022/08/15 09:16:15;;;;;;;16.58;14.45;;;24.90;99.90;;;;;;5072287;28;20509;-93
2022/08/15 09:18:48;;;;;;;17.88;15.98;;;24.90;99.90;;;;;;5072822;28;20131;-93
2022/08/15 09:21:14;;;;;;;16.30;14.57;;;24.90;99.90;;;;;;5071986;28;20051;-93
2022/08/15 09:23:43;;;;;;;17.50;15.70;;;24.80;99.90;;;;;;5072392;28;20036;-93
2022/08/15 09:26:14;;;;;;;17.48;15.50;;;24.80;99.90;;;;;;5071664;28;20048;-93
2022/08/15 09:28:43;;;;;;;16.70;15.15;;;24.80;99.90;;;;;;5071469;28;20502;-93
2022/08/15 09:31:25;;;;;;;17.30;15.52;;;24.80;99.90;;;;;;5072001;28;20161;-92
2022/08/15 09:34:08;;;;;;;17.60;15.70;;;24.90;99.90;;;;;;5071835;28;20526;-93
2022/08/15 09:36:46;;;;;;;18.65;16.90;;;24.90;99.90;;;;;;5070728;28;20041;-92
2022/08/15 09:39:39;;;;;;;18.88;16.90;;;24.90;99.90;;;;;;5071952;28;20048;-93
2022/08/15 09:42:05;;;;;;;19.35;17.45;;;24.90;99.90;;;;;;5071156;28;20591;-93
2022/08/15 09:44:47;;;;;;;18.42;16.52;;;24.90;99.90;;;;;;5071495;28;20041;-93
2022/08/15 09:47:35;;;;;;;19.48;17.27;;;25.00;99.90;;;;;;5071954;28;20041;-93
2022/08/15 09:50:25;;;;;;;19.98;17.95;;;25.00;99.90;;;;;;5069568;28;20040;-93
2022/08/15 09:53:06;;;;;;;20.52;18.40;;;25.00;99.90;;;;;;5052820;28;20069;-93
2022/08/15 09:55:44;;;;;;;21.48;19.23;;;25.00;99.90;;;;;;5051677;28;20037;-93
2022/08/15 09:58:21;;;;;;;24.52;19.88;;;25.00;99.90;;;;;;5037652;28;20120;-92
2022/08/15 10:01:03;;;;;;;20.00;17.98;;;24.90;99.90;;;;;;5035119;28;20525;-93
2022/08/15 10:03:44;;;;;;;21.13;18.83;;;24.90;99.90;;;;;;5055452;28;20047;-93
2022/08/15 10:06:28;;;;;;;20.83;18.80;;;24.90;99.90;;;;;;5065430;28;20395;-93
2022/08/15 10:08:54;;;;;;;22.20;20.05;;;24.90;99.90;;;;;;5072010;28;20064;-93
2022/08/15 10:11:57;;;;;;;21.92;19.73;;;24.80;99.90;;;;;;5072358;28;20048;-93
2022/08/15 10:14:39;;;;;;;23.08;20.80;;;24.80;99.90;;;;;;5070924;28;20056;-93
2022/08/15 10:17:27;;;;;;;22.67;20.48;;;24.80;99.90;;;;;;5071467;28;20047;-93
2022/08/15 10:19:54;;;;;;;22.13;19.85;;;24.90;99.90;;;;;;5071457;28;20517;-93
2022/08/15 10:22:24;;;;;;;23.30;20.90;;;24.90;99.90;;;;;;5070509;28;20089;-93
2022/08/15 10:25:15;;;;;;;22.70;20.40;;;25.00;99.90;;;;;;5054288;28;20041;-93
2022/08/15 10:27:59;;;;;;;22.57;20.43;;;25.00;99.90;;;;;;5071431;28;20040;-93
2022/08/15 10:30:30;;;;;;;23.15;20.83;;;25.10;99.90;;;;;;5070844;28;20040;-93
2022/08/15 10:32:57;;;;;;;23.40;20.90;;;25.10;99.90;;;;;;5070531;28;20507;-93
2022/08/15 10:35:32;;;;;;;25.70;23.30;;;25.20;99.90;;;;;;5054018;28;20072;-93
2022/08/15 10:38:02;;;;;;;25.92;22.15;;;25.20;99.90;;;;;;5071019;28;20033;-93
2022/08/15 10:40:57;;;;;;;25.40;22.90;;;25.30;99.90;;;;;;5050913;28;20067;-92
2022/08/15 10:43:32;;;;;;;24.58;22.10;;;25.30;99.90;;;;;;5065011;28;20375;-93
2022/08/15 10:46:28;;;;;;;26.52;23.80;;;25.30;99.90;;;;;;5053849;28;20519;-93
2022/08/15 10:49:38;;;;;;;25.98;23.48;;;25.30;99.90;;;;;;5070373;28;20048;-93
2022/08/15 10:52:37;;;;;;;24.33;21.95;;;25.30;99.90;;;;;;5071794;28;20044;-94
2022/08/15 10:55:26;;;;;;;25.25;22.85;;;25.30;99.90;;;;;;5070730;28;20036;-93
2022/08/15 10:58:09;;;;;;;25.58;23.08;;;25.30;99.90;;;;;;5071723;28;20181;-94
2022/08/15 11:00:50;;;;;;;26.15;23.70;;;25.30;99.90;;;;;;5070859;28;20040;-93
2022/08/15 11:03:54;;;;;;;25.27;22.95;;;25.40;99.90;;;;;;5070633;28;20037;-94
2022/08/15 11:06:23;;;;;;;26.33;23.83;;;25.50;99.90;;;;;;5012914;28;20060;-93
2022/08/15 11:08:53;;;;;;;26.42;23.92;;;25.50;99.90;;;;;;5060257;28;20052;-94
2022/08/15 11:11:23;;;;;;;26.58;23.98;;;25.60;99.90;;;;;;5070298;28;20090;-93
2022/08/15 11:14:08;;;;;;;27.05;24.48;;;25.60;99.90;;;;;;5070536;28;20051;-92
2022/08/15 11:16:40;;;;;;;27.33;24.63;;;25.70;99.90;;;;;;5070205;28;20037;-93
2022/08/15 11:19:33;;;;;;;27.67;25.00;;;25.70;99.90;;;;;;5053263;28;20033;-93
2022/08/15 11:22:03;;;;;;;26.90;24.40;;;25.80;99.90;;;;;;5053158;28;20045;-93
2022/08/15 11:24:33;;;;;;;28.45;25.63;;;25.80;99.90;;;;;;5070474;28;20493;-94
2022/08/15 11:27:23;;;;;;;27.17;24.50;;;25.90;99.90;;;;;;5053471;28;20087;-93
2022/08/15 11:29:50;;;;;;;27.90;25.20;;;25.90;99.90;;;;;;5053408;28;20102;-93
2022/08/15 11:32:32;;;;;;;27.20;24.65;;;26.00;99.90;;;;;;5068882;28;20044;-93
2022/08/15 11:35:00;;;;;;;27.35;24.83;;;26.10;99.90;;;;;;5053145;28;20037;-93
2022/08/15 11:37:30;;;;;;;27.95;25.15;;;26.10;99.90;;;;;;5053151;28;20063;-93
2022/08/15 11:39:58;;;;;;;27.25;24.73;;;26.30;99.90;;;;;;5074183;28;20094;-93
2022/08/15 11:42:26;;;;;;;28.08;25.42;;;26.30;99.90;;;;;;5057060;28;20051;-93
2022/08/15 11:44:59;;;;;;;28.05;25.35;;;26.40;99.90;;;;;;5073969;28;20039;-93
2022/08/15 11:47:29;;;;;;;27.15;24.45;;;26.50;99.90;;;;;;5073911;28;20072;-92
2022/08/15 11:50:04;;;;;;;27.75;25.35;;;26.50;98.80;;;;;;5074064;28;20047;-93
2022/08/15 11:52:35;;;;;;;27.10;24.48;;;26.60;99.00;;;;;;5056951;28;20051;-93
2022/08/15 11:55:17;;;;;;;27.23;24.52;;;26.60;99.70;;;;;;5074014;28;20525;-94
2022/08/15 11:57:48;;;;;;;26.42;23.95;;;26.60;99.90;;;;;;5073897;28;20528;-94
2022/08/15 12:00:37;;;;;;;26.60;24.10;;;26.60;99.80;;;;;;5057388;28;20044;-93
2022/08/15 12:03:21;;;;;;;26.58;24.00;;;26.70;99.60;;;;;;5064105;28;20055;-93
2022/08/15 12:05:48;;;;;;;23.88;21.48;;;26.80;99.30;;;;;;5056870;28;20078;-94
2022/08/15 12:08:23;;;;;;;22.85;20.55;;;26.80;99.30;;;;;;5073791;28;20071;-93
2022/08/15 12:10:50;;;;;;;23.23;20.95;;;26.90;98.70;;;;;;5073900;28;20040;-93
2022/08/15 12:13:22;;;;;;;22.77;20.65;;;27.00;98.80;;;;;;5056692;28;20039;-93
2022/08/15 12:15:48;;;;;;;21.05;18.85;;;27.00;99.90;;;;;;5057258;28;20508;-94
2022/08/15 12:18:17;;;;;;;20.63;18.63;;;27.00;99.90;;;;;;5073110;28;20049;-93
2022/08/15 12:20:47;;;;;;;20.48;18.48;;;27.00;99.60;;;;;;5073267;28;20045;-94
2022/08/15 12:23:41;;;;;;;19.35;17.42;;;27.00;99.90;;;;;;5056526;28;20047;-93
2022/08/15 12:26:10;;;;;;;17.92;15.80;;;27.10;99.90;;;;;;5035504;28;20084;-94
2022/08/15 12:28:38;;;;;;;18.08;16.38;;;27.00;99.90;;;;;;5056327;28;20066;-93
2022/08/15 12:31:21;;;;;;;17.50;15.65;;;27.10;99.60;;;;;;5073349;28;20042;-94
2022/08/15 12:33:49;;;;;;;20.33;18.23;;;27.20;99.90;;;;;;5073461;28;20393;-93
2022/08/15 12:36:15;;;;;;;18.02;16.23;;;27.20;99.90;;;;;;5072256;28;20558;-94
2022/08/15 12:38:41;;;;;;;18.15;16.35;;;27.20;99.90;;;;;;5073034;28;20055;-94
2022/08/15 12:41:08;;;;;;;19.20;17.33;;;27.20;99.90;;;;;;5073839;28;20074;-94
2022/08/15 12:43:35;;;;;;;19.73;17.17;;;27.20;99.90;;;;;;5074383;28;20128;-93
2022/08/15 12:46:02;;;;;;;20.70;18.80;;;27.20;99.90;;;;;;5074418;28;20064;-94
2022/08/15 12:48:30;;;;;;;21.60;19.50;;;27.20;99.90;;;;;;5055339;28;20032;-93
2022/08/15 12:50:57;;;;;;;21.10;18.90;;;27.20;99.90;;;;;;5055422;28;20051;-94
2022/08/15 12:53:23;;;;;;;20.35;18.25;;;27.30;99.90;;;;;;5073116;28;20406;-94
2022/08/15 12:55:49;;;;;;;20.30;18.38;;;27.20;99.90;;;;;;5072904;28;20040;-93
2022/08/15 12:58:17;;;;;;;19.90;18.05;;;27.20;99.90;;;;;;5072738;28;20036;-93
2022/08/15 13:00:51;;;;;;;21.02;18.85;;;27.10;99.30;;;;;;5055819;28;20047;-93
2022/08/15 13:03:19;;;;;;;19.45;17.65;;;27.10;99.90;;;;;;5055897;28;20048;-93
2022/08/15 13:05:55;;;;;;;19.88;17.90;;;27.10;99.90;;;;;;5072805;28;20033;-93